Time;durP1;ratioP1;P1;durP2;ratioP2;P2;SDS_P1;SDS_P2;PMS_P1;PMS_P2;Temp;Humidity;BMP_temperature;BMP_pressure;BME280_temperature;BME280_humidity;BME280_pressure;Samples;Min_cycle;Max_cycle;Signal;HPM_P1;HPM_P2
2022/06/17 00:00:17;;;;;;;;;;;25.20;41.70;;;;;;5040255;28;19929;-74
2022/06/17 00:02:43;;;;;;;;;;;25.10;44.10;;;;;;5039917;28;19935;-76
2022/06/17 00:05:10;;;;;;;;;;;25.10;41.50;;;;;;5039256;28;19933;-79
2022/06/17 00:07:37;;;;;;;;;;;25.00;42.40;;;;;;5037886;28;20645;-75
2022/06/17 00:10:07;;;;;;;;;;;25.00;42.10;;;;;;5039519;28;19935;-75
2022/06/17 00:12:33;;;;;;;;;;;24.90;42.50;;;;;;5038730;28;19928;-75
2022/06/17 00:15:15;;;;;;;;;;;24.90;42.70;;;;;;5038872;28;19924;-74
2022/06/17 00:17:43;;;;;;;;;;;24.80;42.20;;;;;;5036901;28;19933;-75
2022/06/17 00:20:12;;;;;;;;;;;24.70;42.50;;;;;;5037703;28;20027;-76
2022/06/17 00:22:40;;;;;;;;;;;24.70;42.80;;;;;;5039792;28;19933;-76
2022/06/17 00:25:14;;;;;;;;;;;24.60;42.80;;;;;;5038607;28;19933;-75
2022/06/17 00:27:40;;;;;;;;;;;24.60;43.10;;;;;;5038448;28;19936;-76
2022/06/17 00:30:11;;;;;;;;;;;24.50;43.10;;;;;;5040100;28;19975;-74
2022/06/17 00:32:37;;;;;;;;;;;24.50;43.60;;;;;;5039755;28;21288;-75
2022/06/17 00:35:04;;;;;;;;;;;24.50;43.80;;;;;;5040967;28;19944;-74
2022/06/17 00:37:31;;;;;;;;;;;24.40;43.80;;;;;;5040494;28;20332;-74
2022/06/17 00:39:58;;;;;;;;;;;24.30;43.30;;;;;;5039734;28;19975;-77
2022/06/17 00:42:26;;;;;;;;;;;24.30;43.80;;;;;;5038395;28;20659;-74
2022/06/17 00:44:54;;;;;;;;;;;24.30;43.80;;;;;;5038906;28;19937;-75
2022/06/17 00:47:26;;;;;;;;;;;24.20;43.80;;;;;;5038210;28;19936;-74
2022/06/17 00:49:54;;;;;;;;;;;24.10;43.70;;;;;;5037242;28;19932;-74
2022/06/17 00:52:22;;;;;;;;;;;24.10;44.10;;;;;;5040181;28;19935;-74
2022/06/17 00:54:52;;;;;;;;;;;24.10;44.10;;;;;;5037670;28;19936;-75
2022/06/17 00:57:21;;;;;;;;;;;24.00;44.20;;;;;;5037000;28;19929;-75
2022/06/17 01:00:01;;;;;;;;;;;24.00;44.20;;;;;;5038887;28;19935;-74
2022/06/17 01:02:29;;;;;;;;;;;23.90;44.20;;;;;;5037554;28;19933;-76
2022/06/17 01:04:56;;;;;;;;;;;23.90;44.30;;;;;;5038031;28;19932;-75
2022/06/17 01:07:25;;;;;;;;;;;23.80;44.30;;;;;;5038119;28;19932;-74
2022/06/17 01:09:58;;;;;;;;;;;23.80;44.10;;;;;;5038240;28;19935;-74
2022/06/17 01:12:26;;;;;;;;;;;23.80;44.20;;;;;;5039030;28;19925;-75
2022/06/17 01:14:53;;;;;;;;;;;23.70;44.30;;;;;;5039126;28;19933;-74
2022/06/17 01:17:22;;;;;;;;;;;23.70;44.30;;;;;;5036545;28;19933;-74
2022/06/17 01:19:50;;;;;;;;;;;23.60;44.00;;;;;;5038460;28;19929;-74
2022/06/17 01:22:20;;;;;;;;;;;23.50;44.40;;;;;;5037656;28;19929;-75
2022/06/17 01:24:49;;;;;;;;;;;23.60;44.40;;;;;;5039150;28;20467;-75
2022/06/17 01:27:17;;;;;;;;;;;23.50;43.90;;;;;;5038321;28;19964;-77
2022/06/17 01:29:44;;;;;;;;;;;23.40;44.00;;;;;;5040140;28;19933;-76
2022/06/17 01:32:10;;;;;;;;;;;23.40;44.70;;;;;;5042011;28;19925;-74
2022/06/17 01:34:37;;;;;;;;;;;23.40;44.70;;;;;;5043685;28;19940;-75
2022/06/17 01:37:04;;;;;;;;;;;23.30;44.80;;;;;;5042597;28;20419;-75
2022/06/17 01:39:30;;;;;;;;;;;23.30;44.90;;;;;;5042771;28;19995;-74
2022/06/17 01:41:58;;;;;;;;;;;23.20;44.90;;;;;;5040590;28;20578;-75
2022/06/17 01:44:26;;;;;;;;;;;23.20;45.50;;;;;;5041867;28;19929;-74
2022/06/17 01:46:55;;;;;;;;;;;23.20;45.10;;;;;;5039758;28;19933;-74
2022/06/17 01:49:23;;;;;;;;;;;23.10;45.20;;;;;;5039913;28;19940;-74
2022/06/17 01:51:51;;;;;;;;;;;23.10;45.30;;;;;;5041036;28;20495;-74
2022/06/17 01:54:19;;;;;;;;;;;23.00;45.30;;;;;;5040391;28;19936;-74
2022/06/17 01:56:47;;;;;;;;;;;23.00;45.40;;;;;;5041742;28;19936;-77
2022/06/17 01:59:18;;;;;;;;;;;22.90;45.50;;;;;;5040693;28;19936;-76
2022/06/17 02:01:45;;;;;;;;;;;22.90;45.60;;;;;;5041760;28;19939;-75
2022/06/17 02:04:14;;;;;;;;;;;22.90;45.70;;;;;;5038051;28;19936;-74
2022/06/17 02:06:42;;;;;;;;;;;22.80;45.80;;;;;;5042398;28;19928;-76
2022/06/17 02:09:08;;;;;;;;;;;22.80;45.90;;;;;;5041097;28;20399;-76
2022/06/17 02:11:35;;;;;;;;;;;22.80;45.80;;;;;;5041123;28;19952;-74
2022/06/17 02:14:06;;;;;;;;;;;22.70;45.90;;;;;;5043340;28;20415;-76
2022/06/17 02:16:36;;;;;;;;;;;22.70;46.00;;;;;;5041679;28;19929;-74
2022/06/17 02:19:03;;;;;;;;;;;22.60;46.00;;;;;;5041158;28;20360;-76
2022/06/17 02:21:34;;;;;;;;;;;22.60;46.10;;;;;;5040117;28;20002;-75
2022/06/17 02:24:01;;;;;;;;;;;22.50;46.10;;;;;;5044820;28;20260;-74
2022/06/17 02:26:29;;;;;;;;;;;22.50;46.00;;;;;;5042850;28;19933;-75
2022/06/17 02:28:55;;;;;;;;;;;22.40;46.20;;;;;;5040612;28;19929;-74
2022/06/17 02:31:22;;;;;;;;;;;22.40;46.20;;;;;;5043008;28;19936;-74
2022/06/17 02:33:51;;;;;;;;;;;22.40;46.40;;;;;;5040395;28;20081;-74
2022/06/17 02:36:21;;;;;;;;;;;22.30;46.40;;;;;;5041730;28;19933;-74
2022/06/17 02:38:47;;;;;;;;;;;22.30;46.60;;;;;;5040990;28;19929;-76
2022/06/17 02:41:16;;;;;;;;;;;22.20;46.70;;;;;;5040697;28;19929;-74
2022/06/17 02:43:44;;;;;;;;;;;22.20;46.80;;;;;;5038742;28;19929;-75
2022/06/17 02:46:14;;;;;;;;;;;22.10;46.80;;;;;;5035911;28;19929;-76
2022/06/17 02:48:43;;;;;;;;;;;22.10;47.00;;;;;;5038851;28;19939;-76
2022/06/17 02:51:12;;;;;;;;;;;22.10;47.10;;;;;;5037521;28;20301;-75
2022/06/17 02:53:39;;;;;;;;;;;22.00;47.20;;;;;;5037833;28;20031;-74
2022/06/17 02:56:09;;;;;;;;;;;22.00;47.30;;;;;;5039425;28;19933;-74
2022/06/17 02:58:39;;;;;;;;;;;22.00;47.30;;;;;;5040968;28;20493;-74
2022/06/17 03:01:08;;;;;;;;;;;21.90;47.40;;;;;;5041124;28;20351;-74
2022/06/17 03:03:35;;;;;;;;;;;21.90;47.40;;;;;;5040848;28;20035;-75
2022/06/17 03:06:02;;;;;;;;;;;21.90;47.60;;;;;;5039398;28;20004;-77
2022/06/17 03:08:32;;;;;;;;;;;21.80;47.60;;;;;;5042723;28;19928;-77
2022/06/17 03:11:00;;;;;;;;;;;21.80;47.60;;;;;;5039057;28;19928;-77
2022/06/17 03:13:31;;;;;;;;;;;21.70;47.70;;;;;;5040641;28;19994;-75
2022/06/17 03:15:59;;;;;;;;;;;21.70;47.70;;;;;;5038328;28;19928;-75
2022/06/17 03:18:26;;;;;;;;;;;21.60;47.80;;;;;;5040522;28;19983;-74
2022/06/17 03:20:52;;;;;;;;;;;21.60;47.90;;;;;;5040412;28;20400;-73
2022/06/17 03:23:21;;;;;;;;;;;21.60;48.00;;;;;;5043146;28;20610;-75
2022/06/17 03:25:53;;;;;;;;;;;21.50;48.60;;;;;;5040091;28;20027;-74
2022/06/17 03:28:21;;;;;;;;;;;21.50;48.10;;;;;;5041271;28;20372;-74
2022/06/17 03:30:49;;;;;;;;;;;21.50;47.80;;;;;;5040157;28;19928;-75
2022/06/17 03:33:18;;;;;;;;;;;21.40;48.20;;;;;;5041968;28;20019;-76
2022/06/17 03:35:45;;;;;;;;;;;21.40;47.90;;;;;;5040819;28;19932;-76
2022/06/17 03:38:19;;;;;;;;;;;21.40;48.50;;;;;;5047756;28;19928;-75
2022/06/17 03:40:47;;;;;;;;;;;21.30;48.10;;;;;;5039359;28;20475;-75
2022/06/17 03:43:17;;;;;;;;;;;21.30;48.60;;;;;;5037587;28;19955;-74
2022/06/17 03:45:46;;;;;;;;;;;21.20;48.60;;;;;;5038926;28;19955;-77
2022/06/17 03:48:15;;;;;;;;;;;21.30;48.70;;;;;;5035440;28;19929;-74
2022/06/17 03:50:44;;;;;;;;;;;21.20;48.80;;;;;;5040398;28;19932;-76
2022/06/17 03:53:18;;;;;;;;;;;21.20;49.00;;;;;;5042171;28;20275;-74
2022/06/17 03:55:45;;;;;;;;;;;21.10;48.90;;;;;;5039621;28;20423;-74
2022/06/17 03:58:15;;;;;;;;;;;21.10;49.10;;;;;;5039456;28;19936;-74
2022/06/17 04:00:44;;;;;;;;;;;21.00;49.10;;;;;;5040395;28;19932;-75
2022/06/17 04:03:13;;;;;;;;;;;21.00;49.20;;;;;;5039210;28;20313;-76
2022/06/17 04:05:41;;;;;;;;;;;21.00;49.30;;;;;;5041784;28;20316;-74
2022/06/17 04:08:09;;;;;;;;;;;20.90;49.40;;;;;;5039135;28;19939;-74
2022/06/17 04:10:35;;;;;;;;;;;20.90;49.40;;;;;;5041945;28;19982;-74
2022/06/17 04:13:02;;;;;;;;;;;20.90;49.10;;;;;;5040973;28;19925;-74
2022/06/17 04:15:35;;;;;;;;;;;20.80;49.50;;;;;;5039608;28;19934;-76
2022/06/17 04:18:03;;;;;;;;;;;20.80;49.60;;;;;;5038610;28;19925;-76
2022/06/17 04:20:34;;;;;;;;;;;20.70;49.60;;;;;;5040979;28;19933;-75
2022/06/17 04:23:03;;;;;;;;;;;20.70;49.60;;;;;;5042059;28;20421;-77
2022/06/17 04:25:32;;;;;;;;;;;20.70;49.80;;;;;;5041096;28;19966;-74
2022/06/17 04:28:03;;;;;;;;;;;20.70;49.80;;;;;;5038332;28;19936;-74
2022/06/17 04:30:31;;;;;;;;;;;20.60;49.90;;;;;;5041197;28;20379;-74
2022/06/17 04:33:00;;;;;;;;;;;20.60;50.00;;;;;;5039623;28;19936;-75
2022/06/17 04:35:29;;;;;;;;;;;20.60;50.10;;;;;;5041354;28;19999;-75
2022/06/17 04:37:56;;;;;;;;;;;20.50;50.20;;;;;;5039763;28;19936;-77
2022/06/17 04:40:26;;;;;;;;;;;20.50;49.80;;;;;;5040009;28;19936;-74
2022/06/17 04:42:54;;;;;;;;;;;20.50;50.30;;;;;;5042132;28;19936;-74
2022/06/17 04:45:21;;;;;;;;;;;20.40;50.30;;;;;;5039880;28;19928;-73
2022/06/17 04:47:48;;;;;;;;;;;20.40;50.40;;;;;;5038782;28;19928;-74
2022/06/17 04:50:17;;;;;;;;;;;20.40;50.50;;;;;;5040716;28;19940;-77
2022/06/17 04:52:47;;;;;;;;;;;20.40;50.80;;;;;;5041927;28;20389;-75
2022/06/17 04:55:15;;;;;;;;;;;20.40;50.80;;;;;;5039779;28;20001;-75
2022/06/17 04:57:42;;;;;;;;;;;20.40;50.90;;;;;;5036809;28;19936;-75
2022/06/17 05:00:14;;;;;;;;;;;20.30;51.00;;;;;;5038985;28;20281;-74
2022/06/17 05:02:41;;;;;;;;;;;20.30;51.10;;;;;;5035428;28;19948;-76
2022/06/17 05:05:08;;;;;;;;;;;20.20;51.30;;;;;;5041886;28;19940;-77
2022/06/17 05:07:40;;;;;;;;;;;20.20;51.30;;;;;;5041765;28;20446;-75
2022/06/17 05:10:11;;;;;;;;;;;20.20;50.90;;;;;;5041627;28;20412;-75
2022/06/17 05:12:39;;;;;;;;;;;20.20;51.50;;;;;;5039732;28;20285;-75
2022/06/17 05:15:07;;;;;;;;;;;20.20;51.60;;;;;;5042565;28;19932;-74
2022/06/17 05:17:34;;;;;;;;;;;20.20;51.80;;;;;;5040915;28;20419;-75
2022/06/17 05:20:01;;;;;;;;;;;20.20;51.40;;;;;;5043847;28;19994;-74
2022/06/17 05:22:30;;;;;;;;;;;20.10;52.00;;;;;;5039308;28;19936;-76
2022/06/17 05:24:57;;;;;;;;;;;20.10;52.00;;;;;;5037262;28;19943;-75
2022/06/17 05:27:25;;;;;;;;;;;20.10;52.10;;;;;;5038394;28;19925;-75
2022/06/17 05:29:51;;;;;;;;;;;20.10;51.80;;;;;;5040431;28;19929;-75
2022/06/17 05:32:19;;;;;;;;;;;20.10;52.30;;;;;;5039108;28;19936;-74
2022/06/17 05:34:46;;;;;;;;;;;20.10;52.40;;;;;;5041940;28;19928;-75
2022/06/17 05:37:13;;;;;;;;;;;20.00;52.40;;;;;;5033722;28;19928;-78
2022/06/17 05:39:39;;;;;;;;;;;20.20;52.60;;;;;;5040951;28;19929;-74
2022/06/17 05:42:06;;;;;;;;;;;20.10;52.60;;;;;;5042890;28;19978;-68
2022/06/17 05:44:34;;;;;;;;;;;20.10;52.70;;;;;;5044319;28;19937;-71
2022/06/17 05:47:01;;;;;;;;;;;20.10;52.70;;;;;;5041091;28;20424;-68
2022/06/17 05:49:29;;;;;;;;;;;20.10;52.70;;;;;;5043940;28;19928;-69
2022/06/17 05:51:55;;;;;;;;;;;20.20;54.80;;;;;;5044993;28;19928;-67
2022/06/17 05:54:22;;;;;;;;;;;20.10;55.00;;;;;;5046291;28;19933;-69
2022/06/17 05:56:48;;;;;;;;;;;20.00;54.80;;;;;;5045064;28;19990;-66
2022/06/17 05:59:17;;;;;;;;;;;20.00;54.70;;;;;;5043669;28;19928;-70
2022/06/17 06:01:45;;;;;;;;;;;20.00;54.70;;;;;;5043401;28;19936;-70
2022/06/17 06:04:11;;;;;;;;;;;20.00;54.60;;;;;;5043801;28;19933;-68
2022/06/17 06:06:38;;;;;;;;;;;20.00;54.60;;;;;;5047117;28;19929;-70
2022/06/17 06:09:05;;;;;;;;;;;20.00;54.50;;;;;;5045651;28;20046;-66
2022/06/17 06:11:32;;;;;;;;;;;20.00;54.20;;;;;;5043736;28;19925;-66
2022/06/17 06:13:58;;;;;;;;;;;20.00;54.20;;;;;;5045909;28;20473;-69
2022/06/17 06:16:25;;;;;;;;;;;20.00;54.00;;;;;;5043720;28;19932;-66
2022/06/17 06:18:53;;;;;;;;;;;20.00;53.90;;;;;;5040809;28;19929;-76
2022/06/17 06:21:20;;;;;;;;;;;20.00;54.00;;;;;;5035681;28;20416;-77
2022/06/17 06:23:47;;;;;;;;;;;20.00;53.70;;;;;;5040789;28;20659;-78
2022/06/17 06:26:15;;;;;;;;;;;20.10;53.70;;;;;;5042228;28;19972;-77
2022/06/17 06:28:41;;;;;;;;;;;20.10;53.80;;;;;;5035539;28;19937;-77
2022/06/17 06:31:20;;;;;;;;;;;20.10;53.60;;;;;;5042037;28;19956;-78
2022/06/17 06:33:47;;;;;;;;;;;20.10;53.60;;;;;;5040562;28;19929;-76
2022/06/17 06:36:14;;;;;;;;;;;20.10;53.60;;;;;;5039464;28;19997;-77
2022/06/17 06:38:41;;;;;;;;;;;20.20;53.50;;;;;;5045073;28;19932;-77
2022/06/17 06:41:08;;;;;;;;;;;20.20;53.40;;;;;;5041107;28;19944;-76
2022/06/17 06:43:35;;;;;;;;;;;20.20;53.40;;;;;;5042586;28;20024;-76
2022/06/17 06:46:05;;;;;;;;;;;20.20;53.10;;;;;;5043183;28;19951;-76
2022/06/17 06:48:31;;;;;;;;;;;20.20;53.10;;;;;;5041834;28;19937;-77
2022/06/17 06:50:58;;;;;;;;;;;20.20;53.00;;;;;;5044624;28;20460;-78
2022/06/17 06:53:26;;;;;;;;;;;20.20;53.00;;;;;;5039890;28;19928;-78
2022/06/17 06:55:53;;;;;;;;;;;20.30;53.00;;;;;;5040173;28;20665;-76
2022/06/17 06:58:20;;;;;;;;;;;20.30;53.10;;;;;;5038902;28;19928;-77
2022/06/17 07:00:48;;;;;;;;;;;20.30;52.90;;;;;;5039351;28;19933;-77
2022/06/17 07:03:15;;;;;;;;;;;20.30;52.80;;;;;;5042706;28;19928;-77
2022/06/17 07:05:43;;;;;;;;;;;20.30;52.80;;;;;;5040681;28;20531;-76
2022/06/17 07:08:10;;;;;;;;;;;20.30;52.70;;;;;;5042832;28;19932;-77
2022/06/17 07:10:39;;;;;;;;;;;20.30;52.60;;;;;;5039785;28;19929;-76
2022/06/17 07:13:08;;;;;;;;;;;20.30;52.50;;;;;;5040117;28;19929;-77
2022/06/17 07:15:35;;;;;;;;;;;20.40;52.60;;;;;;5044168;28;19980;-76
2022/06/17 07:18:03;;;;;;;;;;;20.50;52.70;;;;;;5042168;28;19994;-76
2022/06/17 07:20:36;;;;;;;;;;;20.40;52.50;;;;;;5040020;28;20791;-77
2022/06/17 07:23:03;;;;;;;;;;;20.40;52.40;;;;;;5039635;28;20040;-76
2022/06/17 07:25:29;;;;;;;;;;;20.50;52.40;;;;;;5037897;28;19933;-76
2022/06/17 07:27:57;;;;;;;;;;;20.50;52.50;;;;;;5042090;28;19948;-75
2022/06/17 07:30:24;;;;;;;;;;;20.50;52.50;;;;;;5038911;28;20442;-76
2022/06/17 07:32:50;;;;;;;;;;;20.50;52.40;;;;;;5039155;28;19935;-76
2022/06/17 07:35:17;;;;;;;;;;;20.50;52.40;;;;;;5040046;28;20731;-76
2022/06/17 07:40:29;;;;;;;;;;;20.60;52.40;;;;;;5040642;28;19987;-78
2022/06/17 07:42:56;;;;;;;;;;;20.60;52.40;;;;;;5038129;28;19952;-76
2022/06/17 07:45:24;;;;;;;;;;;20.70;52.40;;;;;;5041229;28;19929;-76
2022/06/17 07:47:51;;;;;;;;;;;20.60;52.20;;;;;;5044934;28;19935;-76
2022/06/17 07:50:19;;;;;;;;;;;20.70;52.30;;;;;;5040627;28;19924;-77
2022/06/17 07:52:46;;;;;;;;;;;20.70;52.30;;;;;;5040665;28;19936;-76
2022/06/17 07:55:14;;;;;;;;;;;20.70;52.30;;;;;;5039313;28;20115;-76
2022/06/17 07:57:40;;;;;;;;;;;20.80;52.30;;;;;;5043128;28;20583;-77
2022/06/17 08:00:08;;;;;;;;;;;20.80;52.20;;;;;;5040723;28;19928;-75
2022/06/17 08:02:36;;;;;;;;;;;20.80;52.10;;;;;;5042596;28;19935;-76
2022/06/17 08:05:02;;;;;;;;;;;20.90;52.10;;;;;;5041037;28;19935;-76
2022/06/17 08:07:29;;;;;;;;;;;20.90;52.10;;;;;;5034183;28;19940;-78
2022/06/17 08:09:56;;;;;;;;;;;20.90;51.90;;;;;;5039171;28;19933;-77
2022/06/17 08:12:23;;;;;;;;;;;20.90;52.20;;;;;;5043909;28;19928;-77
2022/06/17 08:14:54;;;;;;;;;;;20.90;52.10;;;;;;5039252;28;19929;-76
2022/06/17 08:17:21;;;;;;;;;;;21.00;52.20;;;;;;5038555;28;19990;-76
2022/06/17 08:19:51;;;;;;;;;;;21.00;52.60;;;;;;5036359;28;19951;-77
2022/06/17 08:22:18;;;;;;;;;;;21.10;52.30;;;;;;5038263;28;20371;-77
2022/06/17 08:24:45;;;;;;;;;;;21.10;52.20;;;;;;5042084;28;19926;-78
2022/06/17 08:27:12;;;;;;;;;;;21.10;52.20;;;;;;5041607;28;19928;-76
2022/06/17 08:29:38;;;;;;;;;;;21.10;52.20;;;;;;5040835;28;19955;-76
2022/06/17 08:34:51;;;;;;;;;;;21.20;52.20;;;;;;5031566;28;20081;-76
2022/06/17 08:37:18;;;;;;;;;;;21.20;52.30;;;;;;5039821;28;19928;-67
2022/06/17 08:39:46;;;;;;;;;;;21.30;52.20;;;;;;5038681;28;19932;-67
2022/06/17 08:42:25;;;;;;;;;;;21.30;52.10;;;;;;5039340;28;19935;-68
2022/06/17 08:44:58;;;;;;;;;;;21.30;52.10;;;;;;5039117;28;19929;-67
2022/06/17 08:47:33;;;;;;;;;;;21.40;52.20;;;;;;5040158;28;19944;-70
2022/06/17 08:50:15;;;;;;;;;;;21.40;52.20;;;;;;5042987;28;19924;-69
2022/06/17 08:52:51;;;;;;;;;;;21.50;52.20;;;;;;5042720;28;19933;-71
2022/06/17 08:55:23;;;;;;;;;;;21.50;52.10;;;;;;5043808;28;19936;-66
2022/06/17 08:57:54;;;;;;;;;;;21.50;52.10;;;;;;5040858;28;19929;-66
2022/06/17 09:00:22;;;;;;;;;;;21.60;52.10;;;;;;5042521;28;19940;-69
2022/06/17 09:02:55;;;;;;;;;;;21.60;52.00;;;;;;5042887;28;20386;-67
2022/06/17 09:05:33;;;;;;;;;;;21.70;52.00;;;;;;5039525;28;19924;-69
2022/06/17 09:08:06;;;;;;;;;;;21.70;52.00;;;;;;5041078;28;19940;-66
2022/06/17 09:10:40;;;;;;;;;;;21.80;51.80;;;;;;5037588;28;19932;-73
2022/06/17 09:13:13;;;;;;;;;;;21.80;51.70;;;;;;5036592;28;20400;-70
2022/06/17 09:15:41;;;;;;;;;;;21.90;52.10;;;;;;5040754;28;19929;-69
2022/06/17 09:18:12;;;;;;;;;;;21.90;51.10;;;;;;5038054;28;20435;-69
2022/06/17 09:20:41;;;;;;;;;;;21.90;51.10;;;;;;5043345;28;19925;-66
2022/06/17 09:23:10;;;;;;;;;;;22.00;51.00;;;;;;5041959;28;19960;-66
2022/06/17 09:25:39;;;;;;;;;;;22.00;50.70;;;;;;5045020;28;19957;-67
2022/06/17 09:28:07;;;;;;;;;;;22.10;50.60;;;;;;5039228;28;20032;-68
2022/06/17 09:30:36;;;;;;;;;;;22.10;50.40;;;;;;5040027;28;20715;-67
2022/06/17 09:33:07;;;;;;;;;;;22.20;50.20;;;;;;5039117;28;19929;-78
2022/06/17 09:35:36;;;;;;;;;;;22.20;50.00;;;;;;5046304;28;19994;-76
2022/06/17 09:38:07;;;;;;;;;;;22.20;50.00;;;;;;5042847;28;19939;-71
2022/06/17 09:40:35;;;;;;;;;;;22.30;49.90;;;;;;5043365;28;19928;-65
2022/06/17 09:43:05;;;;;;;;;;;22.40;49.90;;;;;;5041252;28;19936;-71
2022/06/17 09:45:36;;;;;;;;;;;22.40;49.90;;;;;;5041185;28;20019;-67
2022/06/17 09:48:05;;;;;;;;;;;22.50;50.00;;;;;;5040686;28;19935;-72
2022/06/17 09:50:34;;;;;;;;;;;22.50;49.80;;;;;;5041434;28;19933;-67
2022/06/17 09:53:04;;;;;;;;;;;22.60;49.60;;;;;;5046387;28;19943;-67
2022/06/17 09:55:35;;;;;;;;;;;22.60;49.40;;;;;;5045524;28;19928;-66
2022/06/17 09:58:06;;;;;;;;;;;22.70;49.30;;;;;;5047451;28;19976;-67
2022/06/17 10:00:36;;;;;;;;;;;22.80;49.20;;;;;;5045394;28;20020;-68
2022/06/17 10:03:15;;;;;;;;;;;22.80;48.80;;;;;;5045504;28;19983;-68
2022/06/17 10:05:46;;;;;;;;;;;22.90;48.60;;;;;;5042141;28;20677;-65
2022/06/17 10:08:16;;;;;;;;;;;23.00;48.70;;;;;;5043153;28;20844;-67
2022/06/17 10:10:48;;;;;;;;;;;23.10;48.30;;;;;;5039715;28;19928;-70
2022/06/17 10:13:21;;;;;;;;;;;23.10;48.70;;;;;;5043400;28;19933;-70
2022/06/17 10:18:39;;;;;;;;;;;23.20;48.90;;;;;;5007437;28;19929;-69
2022/06/17 10:21:21;;;;;;;;;;;23.30;48.10;;;;;;5041572;28;19924;-66
2022/06/17 10:23:52;;;;;;;;;;;23.40;48.30;;;;;;5042196;28;19928;-74
2022/06/17 10:26:27;;;;;;;;;;;23.40;48.10;;;;;;5041264;28;19929;-74
2022/06/17 10:29:01;;;;;;;;;;;23.50;47.90;;;;;;5044476;28;19936;-75
2022/06/17 10:31:32;;;;;;;;;;;23.60;47.90;;;;;;5040892;28;19928;-76
2022/06/17 10:34:00;;;;;;;;;;;23.70;47.70;;;;;;5039337;28;19935;-75
2022/06/17 10:36:28;;;;;;;;;;;23.70;47.80;;;;;;5045889;28;19933;-77
2022/06/17 10:38:54;;;;;;;;;;;23.80;47.50;;;;;;5041675;28;19939;-76
2022/06/17 10:41:22;;;;;;;;;;;23.90;47.10;;;;;;5040504;28;19947;-76
2022/06/17 10:43:50;;;;;;;;;;;23.90;46.70;;;;;;5046861;28;19925;-76
2022/06/17 10:46:20;;;;;;;;;;;24.00;46.30;;;;;;5039402;28;19929;-76
2022/06/17 10:48:50;;;;;;;;;;;24.00;46.10;;;;;;5040642;28;19929;-78
2022/06/17 10:51:17;;;;;;;;;;;24.20;46.40;;;;;;5041603;28;19925;-80
2022/06/17 10:53:46;;;;;;;;;;;24.20;46.50;;;;;;5043479;28;20037;-76
2022/06/17 10:56:15;;;;;;;;;;;24.20;46.60;;;;;;5041191;28;19986;-76
2022/06/17 10:58:55;;;;;;;;;;;24.30;47.20;;;;;;5042705;28;19932;-77
2022/06/17 11:01:22;;;;;;;;;;;24.40;46.10;;;;;;5040358;28;19933;-75
2022/06/17 11:03:50;;;;;;;;;;;24.50;46.40;;;;;;5045273;28;19933;-76
2022/06/17 11:06:18;;;;;;;;;;;24.50;45.60;;;;;;5039492;28;20594;-74
2022/06/17 11:08:53;;;;;;;;;;;24.60;45.70;;;;;;5042674;28;19939;-77
2022/06/17 11:14:19;;;;;;;;;;;24.70;45.70;;;;;;5038024;28;19935;-80
2022/06/17 11:16:47;;;;;;;;;;;24.80;45.70;;;;;;5039498;28;21615;-77
2022/06/17 11:19:15;;;;;;;;;;;24.90;45.60;;;;;;5041530;28;20236;-79
2022/06/17 11:21:44;;;;;;;;;;;24.90;44.80;;;;;;5045614;28;19945;-77
2022/06/17 11:24:19;;;;;;;;;;;25.00;44.80;;;;;;5043001;28;20036;-78
2022/06/17 11:26:59;;;;;;;;;;;25.10;43.90;;;;;;5040326;28;19990;-78
2022/06/17 11:29:35;;;;;;;;;;;25.10;44.00;;;;;;5041630;28;19940;-78
2022/06/17 11:32:12;;;;;;;;;;;25.20;43.90;;;;;;5041451;28;20383;-77
2022/06/17 11:34:47;;;;;;;;;;;25.20;42.80;;;;;;5038867;28;19932;-77
2022/06/17 11:37:15;;;;;;;;;;;25.30;43.00;;;;;;5042151;28;19939;-78
2022/06/17 11:39:42;;;;;;;;;;;25.30;43.40;;;;;;5040966;28;19936;-79
2022/06/17 11:42:14;;;;;;;;;;;25.40;43.50;;;;;;5041114;28;19932;-78
2022/06/17 11:44:51;;;;;;;;;;;25.50;43.40;;;;;;5047632;28;19935;-79
2022/06/17 11:47:20;;;;;;;;;;;25.60;42.80;;;;;;5043149;28;19972;-76
2022/06/17 11:49:47;;;;;;;;;;;25.60;42.30;;;;;;5039581;28;19943;-79
2022/06/17 11:52:24;;;;;;;;;;;25.70;48.00;;;;;;5039098;28;19936;-77
2022/06/17 11:54:52;;;;;;;;;;;25.70;42.80;;;;;;5036264;28;19933;-78
2022/06/17 11:57:20;;;;;;;;;;;25.80;43.30;;;;;;5037176;28;19929;-77
2022/06/17 11:59:48;;;;;;;;;;;25.90;43.00;;;;;;5038588;28;19929;-77
2022/06/17 12:02:16;;;;;;;;;;;25.90;42.80;;;;;;5041803;28;19929;-78
2022/06/17 12:04:45;;;;;;;;;;;26.00;43.00;;;;;;5040721;28;20476;-78
2022/06/17 12:07:31;;;;;;;;;;;26.10;42.00;;;;;;5040570;28;19935;-79
2022/06/17 12:10:02;;;;;;;;;;;26.10;42.40;;;;;;5042201;28;20601;-79
2022/06/17 12:12:29;;;;;;;;;;;26.20;42.30;;;;;;5040942;28;19929;-78
2022/06/17 12:14:59;;;;;;;;;;;26.30;42.60;;;;;;5039615;28;19940;-79
2022/06/17 12:17:27;;;;;;;;;;;26.30;42.60;;;;;;5035861;28;19925;-77
2022/06/17 12:19:54;;;;;;;;;;;26.40;41.60;;;;;;5037055;28;20715;-78
2022/06/17 12:22:23;;;;;;;;;;;26.50;41.40;;;;;;5042143;28;20043;-77
2022/06/17 12:24:55;;;;;;;;;;;26.50;41.60;;;;;;5040556;28;19940;-79
2022/06/17 12:27:24;;;;;;;;;;;26.60;41.50;;;;;;5040398;28;20031;-78
2022/06/17 12:29:54;;;;;;;;;;;26.60;41.40;;;;;;5035322;28;19933;-79
2022/06/17 12:32:24;;;;;;;;;;;26.60;41.20;;;;;;5041647;28;19933;-77
2022/06/17 12:34:56;;;;;;;;;;;26.70;41.20;;;;;;5036443;28;19929;-78
2022/06/17 12:37:32;;;;;;;;;;;26.80;41.20;;;;;;5038681;28;19936;-77
2022/06/17 12:40:02;;;;;;;;;;;26.80;41.20;;;;;;5040322;28;20420;-79
2022/06/17 12:42:33;;;;;;;;;;;26.90;41.70;;;;;;5036893;28;19959;-78
2022/06/17 12:45:05;;;;;;;;;;;27.00;41.60;;;;;;5041801;28;19937;-78
2022/06/17 12:47:35;;;;;;;;;;;27.00;41.00;;;;;;5037944;28;19952;-81
2022/06/17 12:55:45;;;;;;;;;;;27.20;40.80;;;;;;5042959;28;20006;-78
2022/06/17 12:58:17;;;;;;;;;;;27.20;40.80;;;;;;5041243;28;19929;-81
2022/06/17 13:00:45;;;;;;;;;;;27.30;40.30;;;;;;5037309;28;20024;-82
2022/06/17 13:03:22;;;;;;;;;;;27.30;40.10;;;;;;5040589;28;19932;-79
2022/06/17 13:05:50;;;;;;;;;;;27.40;40.50;;;;;;5041700;28;19943;-79
2022/06/17 13:08:21;;;;;;;;;;;27.50;40.40;;;;;;5037509;28;20051;-79
2022/06/17 13:10:52;;;;;;;;;;;27.50;38.70;;;;;;5036588;28;19925;-78
2022/06/17 13:13:31;;;;;;;;;;;27.50;39.00;;;;;;5038195;28;19932;-79
2022/06/17 13:15:59;;;;;;;;;;;27.60;38.60;;;;;;5039417;28;20027;-79
2022/06/17 13:18:28;;;;;;;;;;;27.60;39.30;;;;;;5039754;28;19932;-79
2022/06/17 13:20:58;;;;;;;;;;;27.70;39.00;;;;;;5041454;28;19933;-78
2022/06/17 13:23:27;;;;;;;;;;;27.70;39.40;;;;;;5039807;28;20294;-78
2022/06/17 13:25:57;;;;;;;;;;;27.80;39.50;;;;;;5040768;28;19933;-78
2022/06/17 13:28:25;;;;;;;;;;;27.80;39.20;;;;;;5047164;28;19929;-79
2022/06/17 13:30:55;;;;;;;;;;;27.90;38.30;;;;;;5047213;28;19941;-80
2022/06/17 13:33:25;;;;;;;;;;;28.00;38.60;;;;;;5044010;28;19944;-79
2022/06/17 13:35:54;;;;;;;;;;;28.00;38.90;;;;;;5044611;28;19936;-79
2022/06/17 13:38:27;;;;;;;;;;;28.10;39.00;;;;;;5046474;28;19929;-77
2022/06/17 13:40:57;;;;;;;;;;;28.20;40.00;;;;;;5040011;28;20043;-78
2022/06/17 13:43:27;;;;;;;;;;;28.30;40.30;;;;;;5043324;28;19944;-79
2022/06/17 13:45:57;;;;;;;;;;;28.30;40.00;;;;;;5043120;28;19940;-78
2022/06/17 13:48:29;;;;;;;;;;;28.30;38.70;;;;;;5045542;28;20733;-78
2022/06/17 13:51:01;;;;;;;;;;;28.40;37.80;;;;;;5044568;28;19925;-80
2022/06/17 13:53:38;;;;;;;;;;;28.50;37.70;;;;;;5042361;28;19936;-79
2022/06/17 13:56:09;;;;;;;;;;;28.60;38.40;;;;;;5041684;28;19929;-79
2022/06/17 13:58:40;;;;;;;;;;;28.60;38.40;;;;;;5041225;28;19935;-79
2022/06/17 14:01:09;;;;;;;;;;;28.70;37.40;;;;;;5043449;28;19937;-69
2022/06/17 14:03:54;;;;;;;;;;;28.80;37.60;;;;;;5041609;28;19975;-68
2022/06/17 14:06:21;;;;;;;;;;;28.90;37.40;;;;;;5045775;28;19932;-67
2022/06/17 14:08:50;;;;;;;;;;;28.90;37.10;;;;;;5043763;28;19929;-71
2022/06/17 14:11:37;;;;;;;;;;;29.00;36.70;;;;;;5044717;28;19932;-69
2022/06/17 14:14:22;;;;;;;;;;;29.00;37.30;;;;;;5044441;28;19932;-70
2022/06/17 14:16:57;;;;;;;;;;;29.10;37.70;;;;;;5040401;28;20012;-69
2022/06/17 14:19:26;;;;;;;;;;;29.10;36.80;;;;;;5045946;28;19933;-70
2022/06/17 14:21:53;;;;;;;;;;;29.10;36.60;;;;;;5042447;28;19928;-66
2022/06/17 14:24:35;;;;;;;;;;;29.20;36.80;;;;;;5043729;28;19970;-69
2022/06/17 14:27:03;;;;;;;;;;;29.30;37.00;;;;;;5041345;28;20352;-69
2022/06/17 14:29:31;;;;;;;;;;;29.30;36.60;;;;;;5044920;28;20387;-68
2022/06/17 14:31:59;;;;;;;;;;;29.40;36.30;;;;;;5044806;28;19943;-70
2022/06/17 14:34:26;;;;;;;;;;;29.40;36.80;;;;;;5041644;28;19929;-71
2022/06/17 14:36:56;;;;;;;;;;;29.50;36.90;;;;;;5044286;28;19929;-69
2022/06/17 14:39:40;;;;;;;;;;;29.60;36.70;;;;;;5042949;28;19928;-68
2022/06/17 14:42:12;;;;;;;;;;;29.60;36.20;;;;;;5040953;28;19929;-75
2022/06/17 14:44:40;;;;;;;;;;;29.70;36.30;;;;;;5042775;28;19940;-78